sensor_id;sensor_type;location;lat;lon;timestamp;P1;durP1;ratioP1;P2;durP2;ratioP2
1759;SDS011;877;46.266;20.062;2024-03-17T00:02:12;38.50;;;29.90;;
1759;SDS011;877;46.266;20.062;2024-03-17T00:04:39;39.63;;;31.47;;
1759;SDS011;877;46.266;20.062;2024-03-17T00:07:05;40.63;;;32.30;;
1759;SDS011;877;46.266;20.062;2024-03-17T00:09:31;42.27;;;31.00;;
1759;SDS011;877;46.266;20.062;2024-03-17T00:11:57;39.07;;;30.40;;
1759;SDS011;877;46.266;20.062;2024-03-17T00:14:25;42.70;;;31.00;;
1759;SDS011;877;46.266;20.062;2024-03-17T00:16:53;40.63;;;30.40;;
1759;SDS011;877;46.266;20.062;2024-03-17T00:19:20;41.47;;;31.77;;
1759;SDS011;877;46.266;20.062;2024-03-17T00:21:49;40.30;;;30.10;;
1759;SDS011;877;46.266;20.062;2024-03-17T00:24:18;34.47;;;29.07;;
1759;SDS011;877;46.266;20.062;2024-03-17T00:26:45;38.93;;;30.00;;
1759;SDS011;877;46.266;20.062;2024-03-17T00:29:11;40.13;;;30.67;;
1759;SDS011;877;46.266;20.062;2024-03-17T00:31:37;31.23;;;25.77;;
1759;SDS011;877;46.266;20.062;2024-03-17T00:34:04;31.80;;;25.20;;
1759;SDS011;877;46.266;20.062;2024-03-17T00:36:30;31.33;;;24.70;;
1759;SDS011;877;46.266;20.062;2024-03-17T00:38:56;34.70;;;24.90;;
1759;SDS011;877;46.266;20.062;2024-03-17T00:41:22;31.27;;;23.40;;
1759;SDS011;877;46.266;20.062;2024-03-17T00:43:49;30.30;;;22.33;;
1759;SDS011;877;46.266;20.062;2024-03-17T00:46:17;28.20;;;22.63;;
1759;SDS011;877;46.266;20.062;2024-03-17T00:48:46;27.70;;;21.90;;
1759;SDS011;877;46.266;20.062;2024-03-17T00:51:12;27.60;;;22.30;;
1759;SDS011;877;46.266;20.062;2024-03-17T00:53:38;30.27;;;22.63;;
1759;SDS011;877;46.266;20.062;2024-03-17T00:56:04;31.77;;;21.77;;
1759;SDS011;877;46.266;20.062;2024-03-17T00:58:32;27.83;;;22.53;;
1759;SDS011;877;46.266;20.062;2024-03-17T01:00:58;27.43;;;22.20;;
1759;SDS011;877;46.266;20.062;2024-03-17T01:03:24;29.23;;;21.50;;
1759;SDS011;877;46.266;20.062;2024-03-17T01:05:52;26.20;;;20.10;;
1759;SDS011;877;46.266;20.062;2024-03-17T01:08:19;27.20;;;21.53;;
1759;SDS011;877;46.266;20.062;2024-03-17T01:10:45;27.67;;;19.37;;
1759;SDS011;877;46.266;20.062;2024-03-17T01:13:15;24.63;;;20.00;;
1759;SDS011;877;46.266;20.062;2024-03-17T01:15:41;24.70;;;18.67;;
1759;SDS011;877;46.266;20.062;2024-03-17T01:18:07;22.23;;;17.90;;
1759;SDS011;877;46.266;20.062;2024-03-17T01:20:37;23.57;;;17.10;;
1759;SDS011;877;46.266;20.062;2024-03-17T01:23:04;20.93;;;17.90;;
1759;SDS011;877;46.266;20.062;2024-03-17T01:25:30;25.03;;;17.63;;
1759;SDS011;877;46.266;20.062;2024-03-17T01:27:56;25.53;;;19.40;;
1759;SDS011;877;46.266;20.062;2024-03-17T01:30:23;25.50;;;19.13;;
1759;SDS011;877;46.266;20.062;2024-03-17T01:32:50;23.33;;;18.80;;
1759;SDS011;877;46.266;20.062;2024-03-17T01:35:16;27.33;;;19.70;;
1759;SDS011;877;46.266;20.062;2024-03-17T01:37:42;23.77;;;18.40;;
1759;SDS011;877;46.266;20.062;2024-03-17T01:40:08;22.77;;;18.50;;
1759;SDS011;877;46.266;20.062;2024-03-17T01:42:39;23.00;;;18.60;;
1759;SDS011;877;46.266;20.062;2024-03-17T01:47:50;23.10;;;19.00;;
1759;SDS011;877;46.266;20.062;2024-03-17T01:50:17;23.43;;;19.57;;
1759;SDS011;877;46.266;20.062;2024-03-17T01:52:49;24.90;;;19.20;;
1759;SDS011;877;46.266;20.062;2024-03-17T01:55:16;23.33;;;17.93;;
1759;SDS011;877;46.266;20.062;2024-03-17T01:57:42;20.93;;;16.93;;
1759;SDS011;877;46.266;20.062;2024-03-17T02:00:08;23.50;;;18.30;;
1759;SDS011;877;46.266;20.062;2024-03-17T02:02:37;23.10;;;18.10;;
1759;SDS011;877;46.266;20.062;2024-03-17T02:05:03;22.17;;;17.60;;
1759;SDS011;877;46.266;20.062;2024-03-17T02:07:29;21.93;;;16.77;;
1759;SDS011;877;46.266;20.062;2024-03-17T02:09:56;25.80;;;19.93;;
1759;SDS011;877;46.266;20.062;2024-03-17T02:12:23;26.07;;;21.30;;
1759;SDS011;877;46.266;20.062;2024-03-17T02:14:49;29.30;;;22.83;;
1759;SDS011;877;46.266;20.062;2024-03-17T02:17:15;24.00;;;20.27;;
1759;SDS011;877;46.266;20.062;2024-03-17T02:19:42;25.53;;;19.87;;
1759;SDS011;877;46.266;20.062;2024-03-17T02:22:14;22.80;;;17.47;;
1759;SDS011;877;46.266;20.062;2024-03-17T02:24:45;18.47;;;15.10;;
1759;SDS011;877;46.266;20.062;2024-03-17T02:27:12;21.57;;;15.80;;
1759;SDS011;877;46.266;20.062;2024-03-17T02:29:38;19.40;;;15.13;;
1759;SDS011;877;46.266;20.062;2024-03-17T02:32:08;19.63;;;14.53;;
1759;SDS011;877;46.266;20.062;2024-03-17T02:34:34;17.93;;;13.20;;
1759;SDS011;877;46.266;20.062;2024-03-17T02:37:01;16.87;;;12.47;;
1759;SDS011;877;46.266;20.062;2024-03-17T02:39:28;15.37;;;11.87;;
1759;SDS011;877;46.266;20.062;2024-03-17T02:42:01;13.73;;;11.07;;
1759;SDS011;877;46.266;20.062;2024-03-17T02:44:27;17.10;;;11.63;;
1759;SDS011;877;46.266;20.062;2024-03-17T02:46:53;14.03;;;10.73;;
1759;SDS011;877;46.266;20.062;2024-03-17T02:49:20;15.17;;;9.37;;
1759;SDS011;877;46.266;20.062;2024-03-17T02:51:47;14.50;;;10.50;;
1759;SDS011;877;46.266;20.062;2024-03-17T02:54:13;12.93;;;8.90;;
1759;SDS011;877;46.266;20.062;2024-03-17T02:56:39;11.67;;;8.53;;
1759;SDS011;877;46.266;20.062;2024-03-17T02:59:07;12.93;;;9.30;;
1759;SDS011;877;46.266;20.062;2024-03-17T03:01:33;10.73;;;8.53;;
1759;SDS011;877;46.266;20.062;2024-03-17T03:03:59;11.87;;;8.30;;
1759;SDS011;877;46.266;20.062;2024-03-17T03:06:26;10.53;;;7.60;;
1759;SDS011;877;46.266;20.062;2024-03-17T03:08:52;9.90;;;7.20;;
1759;SDS011;877;46.266;20.062;2024-03-17T03:11:19;9.83;;;7.23;;
1759;SDS011;877;46.266;20.062;2024-03-17T03:13:45;10.30;;;7.10;;
1759;SDS011;877;46.266;20.062;2024-03-17T03:16:12;7.50;;;5.93;;
1759;SDS011;877;46.266;20.062;2024-03-17T03:18:44;8.40;;;6.40;;
1759;SDS011;877;46.266;20.062;2024-03-17T03:21:10;8.73;;;5.57;;
1759;SDS011;877;46.266;20.062;2024-03-17T03:23:41;8.27;;;5.53;;
1759;SDS011;877;46.266;20.062;2024-03-17T03:26:07;6.70;;;4.77;;
1759;SDS011;877;46.266;20.062;2024-03-17T03:28:35;9.90;;;5.40;;
1759;SDS011;877;46.266;20.062;2024-03-17T03:31:01;6.07;;;4.33;;
1759;SDS011;877;46.266;20.062;2024-03-17T03:33:27;6.07;;;4.40;;
1759;SDS011;877;46.266;20.062;2024-03-17T03:35:53;7.23;;;4.77;;
1759;SDS011;877;46.266;20.062;2024-03-17T03:38:20;8.60;;;5.43;;
1759;SDS011;877;46.266;20.062;2024-03-17T03:40:47;5.97;;;4.20;;
1759;SDS011;877;46.266;20.062;2024-03-17T03:43:13;6.93;;;4.73;;
1759;SDS011;877;46.266;20.062;2024-03-17T03:45:40;6.27;;;4.23;;
1759;SDS011;877;46.266;20.062;2024-03-17T03:48:06;6.40;;;4.07;;
1759;SDS011;877;46.266;20.062;2024-03-17T03:50:37;8.10;;;4.47;;
1759;SDS011;877;46.266;20.062;2024-03-17T03:53:04;6.80;;;4.33;;
1759;SDS011;877;46.266;20.062;2024-03-17T03:55:32;5.90;;;4.00;;
1759;SDS011;877;46.266;20.062;2024-03-17T03:57:58;5.77;;;3.87;;
1759;SDS011;877;46.266;20.062;2024-03-17T04:00:24;8.60;;;4.40;;
1759;SDS011;877;46.266;20.062;2024-03-17T04:02:54;7.23;;;4.13;;
1759;SDS011;877;46.266;20.062;2024-03-17T04:05:21;6.27;;;4.23;;
1759;SDS011;877;46.266;20.062;2024-03-17T04:07:47;7.13;;;3.60;;
1759;SDS011;877;46.266;20.062;2024-03-17T04:10:14;5.93;;;3.87;;
1759;SDS011;877;46.266;20.062;2024-03-17T04:12:42;9.03;;;3.50;;
1759;SDS011;877;46.266;20.062;2024-03-17T04:15:08;7.10;;;3.53;;
1759;SDS011;877;46.266;20.062;2024-03-17T04:17:39;6.43;;;3.90;;
1759;SDS011;877;46.266;20.062;2024-03-17T04:20:05;5.23;;;3.43;;
1759;SDS011;877;46.266;20.062;2024-03-17T04:22:38;5.87;;;3.80;;
1759;SDS011;877;46.266;20.062;2024-03-17T04:25:04;7.13;;;3.40;;
1759;SDS011;877;46.266;20.062;2024-03-17T04:27:30;6.10;;;3.90;;
1759;SDS011;877;46.266;20.062;2024-03-17T04:29:57;5.87;;;3.67;;
1759;SDS011;877;46.266;20.062;2024-03-17T04:32:24;6.60;;;3.80;;
1759;SDS011;877;46.266;20.062;2024-03-17T04:34:52;5.67;;;3.87;;
1759;SDS011;877;46.266;20.062;2024-03-17T04:37:18;7.40;;;4.63;;
1759;SDS011;877;46.266;20.062;2024-03-17T04:39:44;6.40;;;4.43;;
1759;SDS011;877;46.266;20.062;2024-03-17T04:42:12;7.23;;;4.33;;
1759;SDS011;877;46.266;20.062;2024-03-17T04:44:42;4.97;;;3.50;;
1759;SDS011;877;46.266;20.062;2024-03-17T04:47:08;5.60;;;3.70;;
1759;SDS011;877;46.266;20.062;2024-03-17T04:49:35;5.80;;;3.43;;
1759;SDS011;877;46.266;20.062;2024-03-17T04:52:02;6.13;;;3.77;;
1759;SDS011;877;46.266;20.062;2024-03-17T04:54:28;5.87;;;3.63;;
1759;SDS011;877;46.266;20.062;2024-03-17T04:56:54;6.20;;;3.60;;
1759;SDS011;877;46.266;20.062;2024-03-17T04:59:21;5.50;;;3.90;;
1759;SDS011;877;46.266;20.062;2024-03-17T05:01:47;5.50;;;3.83;;
1759;SDS011;877;46.266;20.062;2024-03-17T05:04:13;5.60;;;3.90;;
1759;SDS011;877;46.266;20.062;2024-03-17T05:06:40;5.50;;;3.77;;
1759;SDS011;877;46.266;20.062;2024-03-17T05:09:15;6.17;;;3.80;;
1759;SDS011;877;46.266;20.062;2024-03-17T05:11:41;5.90;;;3.80;;
1759;SDS011;877;46.266;20.062;2024-03-17T05:14:08;6.00;;;4.33;;
1759;SDS011;877;46.266;20.062;2024-03-17T05:16:34;5.90;;;4.00;;
1759;SDS011;877;46.266;20.062;2024-03-17T05:19:00;5.47;;;3.87;;
1759;SDS011;877;46.266;20.062;2024-03-17T05:21:27;6.40;;;4.00;;
1759;SDS011;877;46.266;20.062;2024-03-17T05:23:56;7.07;;;4.17;;
1759;SDS011;877;46.266;20.062;2024-03-17T05:26:25;6.33;;;3.50;;
1759;SDS011;877;46.266;20.062;2024-03-17T05:28:51;6.70;;;4.00;;
1759;SDS011;877;46.266;20.062;2024-03-17T05:31:18;5.27;;;3.70;;
1759;SDS011;877;46.266;20.062;2024-03-17T05:33:46;5.50;;;3.90;;
1759;SDS011;877;46.266;20.062;2024-03-17T05:36:12;8.27;;;4.30;;
1759;SDS011;877;46.266;20.062;2024-03-17T05:38:38;5.93;;;4.10;;
1759;SDS011;877;46.266;20.062;2024-03-17T05:41:05;6.20;;;4.00;;
1759;SDS011;877;46.266;20.062;2024-03-17T05:43:35;6.00;;;4.50;;
1759;SDS011;877;46.266;20.062;2024-03-17T05:46:03;5.77;;;4.17;;
1759;SDS011;877;46.266;20.062;2024-03-17T05:48:33;6.43;;;4.53;;
1759;SDS011;877;46.266;20.062;2024-03-17T05:51:02;7.20;;;4.13;;
1759;SDS011;877;46.266;20.062;2024-03-17T05:53:28;5.27;;;3.83;;
1759;SDS011;877;46.266;20.062;2024-03-17T05:55:58;6.23;;;4.53;;
1759;SDS011;877;46.266;20.062;2024-03-17T05:58:25;6.73;;;4.33;;
1759;SDS011;877;46.266;20.062;2024-03-17T06:00:51;7.13;;;4.60;;
1759;SDS011;877;46.266;20.062;2024-03-17T06:03:17;6.23;;;4.40;;
1759;SDS011;877;46.266;20.062;2024-03-17T06:05:43;7.07;;;4.50;;
1759;SDS011;877;46.266;20.062;2024-03-17T06:08:11;6.90;;;4.07;;
1759;SDS011;877;46.266;20.062;2024-03-17T06:10:37;5.97;;;3.80;;
1759;SDS011;877;46.266;20.062;2024-03-17T06:13:05;6.70;;;3.90;;
1759;SDS011;877;46.266;20.062;2024-03-17T06:15:31;8.50;;;4.53;;
1759;SDS011;877;46.266;20.062;2024-03-17T06:17:57;5.77;;;4.43;;
1759;SDS011;877;46.266;20.062;2024-03-17T06:20:26;6.70;;;4.27;;
1759;SDS011;877;46.266;20.062;2024-03-17T06:22:53;5.67;;;4.13;;
1759;SDS011;877;46.266;20.062;2024-03-17T06:25:19;4.90;;;3.50;;
1759;SDS011;877;46.266;20.062;2024-03-17T06:27:51;4.90;;;3.60;;
1759;SDS011;877;46.266;20.062;2024-03-17T06:30:18;4.43;;;3.30;;
1759;SDS011;877;46.266;20.062;2024-03-17T06:32:45;5.47;;;3.67;;
1759;SDS011;877;46.266;20.062;2024-03-17T06:35:15;6.57;;;4.27;;
1759;SDS011;877;46.266;20.062;2024-03-17T06:37:43;6.53;;;4.43;;
1759;SDS011;877;46.266;20.062;2024-03-17T06:40:13;5.60;;;4.00;;
1759;SDS011;877;46.266;20.062;2024-03-17T06:42:39;7.50;;;4.50;;
1759;SDS011;877;46.266;20.062;2024-03-17T06:45:06;4.67;;;3.13;;
1759;SDS011;877;46.266;20.062;2024-03-17T06:47:36;6.43;;;4.20;;
1759;SDS011;877;46.266;20.062;2024-03-17T06:50:03;7.33;;;4.07;;
1759;SDS011;877;46.266;20.062;2024-03-17T06:52:29;4.83;;;3.70;;
1759;SDS011;877;46.266;20.062;2024-03-17T06:54:58;6.57;;;4.17;;
1759;SDS011;877;46.266;20.062;2024-03-17T06:57:26;5.80;;;3.90;;
1759;SDS011;877;46.266;20.062;2024-03-17T06:59:52;5.20;;;4.10;;
1759;SDS011;877;46.266;20.062;2024-03-17T07:02:18;5.57;;;4.17;;
1759;SDS011;877;46.266;20.062;2024-03-17T07:04:45;7.20;;;4.07;;
1759;SDS011;877;46.266;20.062;2024-03-17T07:07:12;5.40;;;3.90;;
1759;SDS011;877;46.266;20.062;2024-03-17T07:09:38;5.80;;;3.30;;
1759;SDS011;877;46.266;20.062;2024-03-17T07:12:06;7.13;;;4.17;;
1759;SDS011;877;46.266;20.062;2024-03-17T07:14:33;5.77;;;4.10;;
1759;SDS011;877;46.266;20.062;2024-03-17T07:16:59;7.90;;;3.50;;
1759;SDS011;877;46.266;20.062;2024-03-17T07:19:25;6.00;;;3.57;;
1759;SDS011;877;46.266;20.062;2024-03-17T07:21:51;4.43;;;3.27;;
1759;SDS011;877;46.266;20.062;2024-03-17T07:24:17;4.87;;;3.50;;
1759;SDS011;877;46.266;20.062;2024-03-17T07:26:44;4.90;;;3.63;;
1759;SDS011;877;46.266;20.062;2024-03-17T07:29:10;5.30;;;3.60;;
1759;SDS011;877;46.266;20.062;2024-03-17T07:31:36;6.07;;;2.50;;
1759;SDS011;877;46.266;20.062;2024-03-17T07:34:02;4.40;;;3.27;;
1759;SDS011;877;46.266;20.062;2024-03-17T07:36:28;4.60;;;3.10;;
1759;SDS011;877;46.266;20.062;2024-03-17T07:38:54;5.30;;;3.10;;
1759;SDS011;877;46.266;20.062;2024-03-17T07:41:21;6.33;;;2.90;;
1759;SDS011;877;46.266;20.062;2024-03-17T07:43:49;8.57;;;6.13;;
1759;SDS011;877;46.266;20.062;2024-03-17T07:46:15;6.50;;;4.67;;
1759;SDS011;877;46.266;20.062;2024-03-17T07:48:43;4.23;;;2.40;;
1759;SDS011;877;46.266;20.062;2024-03-17T07:51:11;4.23;;;2.57;;
1759;SDS011;877;46.266;20.062;2024-03-17T07:53:38;3.73;;;1.80;;
1759;SDS011;877;46.266;20.062;2024-03-17T07:56:08;3.53;;;1.90;;
1759;SDS011;877;46.266;20.062;2024-03-17T07:58:35;3.80;;;2.00;;
1759;SDS011;877;46.266;20.062;2024-03-17T08:01:04;4.77;;;1.87;;
1759;SDS011;877;46.266;20.062;2024-03-17T08:03:30;4.07;;;2.17;;
1759;SDS011;877;46.266;20.062;2024-03-17T08:06:00;4.47;;;2.53;;
1759;SDS011;877;46.266;20.062;2024-03-17T08:08:26;3.90;;;2.40;;
1759;SDS011;877;46.266;20.062;2024-03-17T08:10:53;4.00;;;2.07;;
1759;SDS011;877;46.266;20.062;2024-03-17T08:13:19;4.70;;;1.90;;
1759;SDS011;877;46.266;20.062;2024-03-17T08:15:46;4.07;;;2.17;;
1759;SDS011;877;46.266;20.062;2024-03-17T08:18:13;3.80;;;1.90;;
1759;SDS011;877;46.266;20.062;2024-03-17T08:20:40;8.10;;;2.40;;
1759;SDS011;877;46.266;20.062;2024-03-17T08:23:07;5.00;;;2.13;;
1759;SDS011;877;46.266;20.062;2024-03-17T08:25:34;4.50;;;2.47;;
1759;SDS011;877;46.266;20.062;2024-03-17T08:28:00;3.93;;;2.00;;
1759;SDS011;877;46.266;20.062;2024-03-17T08:30:27;16.83;;;2.53;;
1759;SDS011;877;46.266;20.062;2024-03-17T08:32:54;4.20;;;2.20;;
1759;SDS011;877;46.266;20.062;2024-03-17T08:35:20;6.40;;;2.13;;
1759;SDS011;877;46.266;20.062;2024-03-17T08:37:46;8.23;;;2.67;;
1759;SDS011;877;46.266;20.062;2024-03-17T08:40:12;5.17;;;2.30;;
1759;SDS011;877;46.266;20.062;2024-03-17T08:42:40;4.20;;;1.80;;
1759;SDS011;877;46.266;20.062;2024-03-17T08:45:06;3.80;;;1.70;;
1759;SDS011;877;46.266;20.062;2024-03-17T08:47:33;4.97;;;1.83;;
1759;SDS011;877;46.266;20.062;2024-03-17T08:49:59;4.00;;;1.97;;
1759;SDS011;877;46.266;20.062;2024-03-17T08:52:29;5.67;;;2.17;;
1759;SDS011;877;46.266;20.062;2024-03-17T08:54:57;4.60;;;2.37;;
1759;SDS011;877;46.266;20.062;2024-03-17T08:57:23;4.63;;;2.17;;
1759;SDS011;877;46.266;20.062;2024-03-17T08:59:49;4.87;;;2.37;;
1759;SDS011;877;46.266;20.062;2024-03-17T09:02:18;4.37;;;2.37;;
1759;SDS011;877;46.266;20.062;2024-03-17T09:04:46;3.90;;;2.30;;
1759;SDS011;877;46.266;20.062;2024-03-17T09:07:13;6.67;;;3.10;;
1759;SDS011;877;46.266;20.062;2024-03-17T09:09:41;4.00;;;2.50;;
1759;SDS011;877;46.266;20.062;2024-03-17T09:12:08;4.17;;;2.43;;
1759;SDS011;877;46.266;20.062;2024-03-17T09:14:34;4.30;;;2.63;;
1759;SDS011;877;46.266;20.062;2024-03-17T09:17:00;4.87;;;3.20;;
1759;SDS011;877;46.266;20.062;2024-03-17T09:19:27;5.00;;;2.80;;
1759;SDS011;877;46.266;20.062;2024-03-17T09:21:54;4.33;;;2.10;;
1759;SDS011;877;46.266;20.062;2024-03-17T09:24:20;4.83;;;2.10;;
1759;SDS011;877;46.266;20.062;2024-03-17T09:26:47;4.03;;;2.10;;
1759;SDS011;877;46.266;20.062;2024-03-17T09:29:13;11.90;;;2.37;;
1759;SDS011;877;46.266;20.062;2024-03-17T09:31:42;5.83;;;2.13;;
1759;SDS011;877;46.266;20.062;2024-03-17T09:34:08;6.67;;;2.60;;
1759;SDS011;877;46.266;20.062;2024-03-17T09:36:34;4.87;;;2.60;;
1759;SDS011;877;46.266;20.062;2024-03-17T09:39:01;3.67;;;1.80;;
1759;SDS011;877;46.266;20.062;2024-03-17T09:41:29;3.90;;;2.07;;
1759;SDS011;877;46.266;20.062;2024-03-17T09:43:56;4.23;;;1.83;;
1759;SDS011;877;46.266;20.062;2024-03-17T09:46:23;4.77;;;2.30;;
1759;SDS011;877;46.266;20.062;2024-03-17T09:48:52;8.70;;;2.43;;
1759;SDS011;877;46.266;20.062;2024-03-17T09:51:22;4.33;;;2.20;;
1759;SDS011;877;46.266;20.062;2024-03-17T09:53:49;7.23;;;2.17;;
1759;SDS011;877;46.266;20.062;2024-03-17T09:56:16;6.30;;;1.90;;
1759;SDS011;877;46.266;20.062;2024-03-17T09:58:45;4.20;;;2.20;;
1759;SDS011;877;46.266;20.062;2024-03-17T10:01:13;7.63;;;2.27;;
1759;SDS011;877;46.266;20.062;2024-03-17T10:06:06;4.93;;;1.97;;
1759;SDS011;877;46.266;20.062;2024-03-17T10:08:39;7.30;;;2.43;;
1759;SDS011;877;46.266;20.062;2024-03-17T10:11:05;5.40;;;2.60;;
1759;SDS011;877;46.266;20.062;2024-03-17T10:13:32;7.00;;;2.90;;
1759;SDS011;877;46.266;20.062;2024-03-17T10:15:58;9.23;;;2.63;;
1759;SDS011;877;46.266;20.062;2024-03-17T10:18:24;6.53;;;2.33;;
1759;SDS011;877;46.266;20.062;2024-03-17T10:20:50;4.53;;;2.07;;
1759;SDS011;877;46.266;20.062;2024-03-17T10:23:21;5.80;;;2.03;;
1759;SDS011;877;46.266;20.062;2024-03-17T10:25:48;3.83;;;1.93;;
1759;SDS011;877;46.266;20.062;2024-03-17T10:28:14;4.17;;;1.70;;
1759;SDS011;877;46.266;20.062;2024-03-17T10:30:42;5.07;;;2.40;;
1759;SDS011;877;46.266;20.062;2024-03-17T10:33:20;4.40;;;2.30;;
1759;SDS011;877;46.266;20.062;2024-03-17T10:35:48;3.70;;;2.03;;
1759;SDS011;877;46.266;20.062;2024-03-17T10:38:14;5.20;;;2.30;;
1759;SDS011;877;46.266;20.062;2024-03-17T10:40:41;6.43;;;2.00;;
1759;SDS011;877;46.266;20.062;2024-03-17T10:43:07;4.90;;;2.20;;
1759;SDS011;877;46.266;20.062;2024-03-17T10:45:33;4.23;;;1.90;;
1759;SDS011;877;46.266;20.062;2024-03-17T10:48:08;6.43;;;1.33;;
1759;SDS011;877;46.266;20.062;2024-03-17T10:50:38;4.80;;;1.53;;
1759;SDS011;877;46.266;20.062;2024-03-17T10:53:05;9.60;;;1.70;;
1759;SDS011;877;46.266;20.062;2024-03-17T10:55:55;3.90;;;1.57;;
1759;SDS011;877;46.266;20.062;2024-03-17T10:58:23;6.43;;;1.57;;
1759;SDS011;877;46.266;20.062;2024-03-17T11:00:56;4.17;;;1.43;;
1759;SDS011;877;46.266;20.062;2024-03-17T11:03:22;5.97;;;1.63;;
1759;SDS011;877;46.266;20.062;2024-03-17T11:05:48;4.10;;;1.57;;
1759;SDS011;877;46.266;20.062;2024-03-17T11:08:16;5.60;;;1.73;;
1759;SDS011;877;46.266;20.062;2024-03-17T11:10:52;4.43;;;1.93;;
1759;SDS011;877;46.266;20.062;2024-03-17T11:13:24;5.70;;;2.50;;
1759;SDS011;877;46.266;20.062;2024-03-17T11:15:50;7.13;;;1.73;;
1759;SDS011;877;46.266;20.062;2024-03-17T11:20:57;3.63;;;1.60;;
1759;SDS011;877;46.266;20.062;2024-03-17T11:23:27;3.70;;;1.57;;
1759;SDS011;877;46.266;20.062;2024-03-17T11:25:54;3.80;;;1.73;;
1759;SDS011;877;46.266;20.062;2024-03-17T11:31:05;3.60;;;1.53;;
1759;SDS011;877;46.266;20.062;2024-03-17T11:41:36;5.50;;;1.40;;
1759;SDS011;877;46.266;20.062;2024-03-17T11:51:51;5.20;;;1.97;;
1759;SDS011;877;46.266;20.062;2024-03-17T11:54:22;3.40;;;1.60;;
1759;SDS011;877;46.266;20.062;2024-03-17T11:56:50;4.20;;;1.33;;
1759;SDS011;877;46.266;20.062;2024-03-17T11:59:18;5.70;;;1.37;;
1759;SDS011;877;46.266;20.062;2024-03-17T12:01:45;6.23;;;1.83;;
1759;SDS011;877;46.266;20.062;2024-03-17T12:04:13;4.87;;;1.40;;
1759;SDS011;877;46.266;20.062;2024-03-17T12:06:39;3.70;;;1.50;;
1759;SDS011;877;46.266;20.062;2024-03-17T12:11:59;7.07;;;1.33;;
1759;SDS011;877;46.266;20.062;2024-03-17T12:14:25;4.40;;;1.67;;
1759;SDS011;877;46.266;20.062;2024-03-17T12:16:59;3.53;;;1.40;;
1759;SDS011;877;46.266;20.062;2024-03-17T12:19:25;4.43;;;1.50;;
1759;SDS011;877;46.266;20.062;2024-03-17T12:21:53;2.70;;;0.97;;
1759;SDS011;877;46.266;20.062;2024-03-17T12:24:20;3.50;;;1.40;;
1759;SDS011;877;46.266;20.062;2024-03-17T12:26:47;4.03;;;1.40;;
1759;SDS011;877;46.266;20.062;2024-03-17T12:29:30;4.50;;;1.57;;
1759;SDS011;877;46.266;20.062;2024-03-17T12:32:00;4.00;;;1.20;;
1759;SDS011;877;46.266;20.062;2024-03-17T12:34:27;5.80;;;1.57;;
1759;SDS011;877;46.266;20.062;2024-03-17T12:36:55;3.67;;;1.30;;
1759;SDS011;877;46.266;20.062;2024-03-17T12:39:23;5.60;;;1.67;;
1759;SDS011;877;46.266;20.062;2024-03-17T12:42:09;4.17;;;1.50;;
1759;SDS011;877;46.266;20.062;2024-03-17T12:47:15;4.67;;;1.40;;
1759;SDS011;877;46.266;20.062;2024-03-17T12:49:45;4.60;;;1.13;;
1759;SDS011;877;46.266;20.062;2024-03-17T12:52:19;4.30;;;1.93;;
1759;SDS011;877;46.266;20.062;2024-03-17T12:54:58;7.67;;;1.90;;
1759;SDS011;877;46.266;20.062;2024-03-17T12:57:45;3.60;;;1.43;;
1759;SDS011;877;46.266;20.062;2024-03-17T13:00:30;3.57;;;1.60;;
1759;SDS011;877;46.266;20.062;2024-03-17T13:02:57;3.20;;;1.20;;
1759;SDS011;877;46.266;20.062;2024-03-17T13:05:23;3.10;;;1.27;;
1759;SDS011;877;46.266;20.062;2024-03-17T13:07:49;5.23;;;1.70;;
1759;SDS011;877;46.266;20.062;2024-03-17T13:10:16;4.03;;;1.53;;
1759;SDS011;877;46.266;20.062;2024-03-17T13:12:43;4.80;;;1.37;;
1759;SDS011;877;46.266;20.062;2024-03-17T13:15:12;6.13;;;1.67;;
1759;SDS011;877;46.266;20.062;2024-03-17T13:17:38;3.67;;;1.20;;
1759;SDS011;877;46.266;20.062;2024-03-17T13:20:05;4.53;;;2.00;;
1759;SDS011;877;46.266;20.062;2024-03-17T13:22:34;4.60;;;1.40;;
1759;SDS011;877;46.266;20.062;2024-03-17T13:25:01;5.97;;;1.90;;
1759;SDS011;877;46.266;20.062;2024-03-17T13:27:27;4.90;;;1.80;;
1759;SDS011;877;46.266;20.062;2024-03-17T13:29:53;3.80;;;1.50;;
1759;SDS011;877;46.266;20.062;2024-03-17T13:32:19;8.23;;;1.53;;
1759;SDS011;877;46.266;20.062;2024-03-17T13:34:46;3.60;;;1.27;;
1759;SDS011;877;46.266;20.062;2024-03-17T13:37:12;6.00;;;1.67;;
1759;SDS011;877;46.266;20.062;2024-03-17T13:39:38;5.20;;;1.53;;
1759;SDS011;877;46.266;20.062;2024-03-17T13:42:04;3.30;;;1.30;;
1759;SDS011;877;46.266;20.062;2024-03-17T13:44:31;4.87;;;1.17;;
1759;SDS011;877;46.266;20.062;2024-03-17T13:46:57;5.50;;;1.67;;
1759;SDS011;877;46.266;20.062;2024-03-17T13:49:24;5.47;;;1.87;;
1759;SDS011;877;46.266;20.062;2024-03-17T13:51:56;3.33;;;1.30;;
1759;SDS011;877;46.266;20.062;2024-03-17T13:54:22;3.40;;;1.57;;
1759;SDS011;877;46.266;20.062;2024-03-17T13:56:48;4.80;;;1.57;;
1759;SDS011;877;46.266;20.062;2024-03-17T13:59:17;4.57;;;1.60;;
1759;SDS011;877;46.266;20.062;2024-03-17T14:01:43;4.23;;;1.50;;
1759;SDS011;877;46.266;20.062;2024-03-17T14:04:13;5.07;;;1.60;;
1759;SDS011;877;46.266;20.062;2024-03-17T14:06:40;15.80;;;1.90;;
1759;SDS011;877;46.266;20.062;2024-03-17T14:09:06;3.33;;;1.37;;
1759;SDS011;877;46.266;20.062;2024-03-17T14:11:35;4.70;;;1.60;;
1759;SDS011;877;46.266;20.062;2024-03-17T14:14:03;7.57;;;1.50;;
1759;SDS011;877;46.266;20.062;2024-03-17T14:16:31;3.77;;;1.70;;
1759;SDS011;877;46.266;20.062;2024-03-17T14:19:00;4.90;;;1.80;;
1759;SDS011;877;46.266;20.062;2024-03-17T14:21:27;5.40;;;2.10;;
1759;SDS011;877;46.266;20.062;2024-03-17T14:23:54;3.37;;;1.40;;
1759;SDS011;877;46.266;20.062;2024-03-17T14:26:20;4.23;;;2.00;;
1759;SDS011;877;46.266;20.062;2024-03-17T14:28:46;4.20;;;1.63;;
1759;SDS011;877;46.266;20.062;2024-03-17T14:31:13;6.00;;;2.50;;
1759;SDS011;877;46.266;20.062;2024-03-17T14:33:39;6.30;;;2.27;;
1759;SDS011;877;46.266;20.062;2024-03-17T14:36:05;3.20;;;1.70;;
1759;SDS011;877;46.266;20.062;2024-03-17T14:38:31;5.50;;;2.37;;
1759;SDS011;877;46.266;20.062;2024-03-17T14:40:57;6.00;;;2.33;;
1759;SDS011;877;46.266;20.062;2024-03-17T14:43:24;7.03;;;2.17;;
1759;SDS011;877;46.266;20.062;2024-03-17T14:45:50;5.50;;;1.90;;
1759;SDS011;877;46.266;20.062;2024-03-17T14:48:16;5.03;;;1.90;;
1759;SDS011;877;46.266;20.062;2024-03-17T14:50:42;4.80;;;2.03;;
1759;SDS011;877;46.266;20.062;2024-03-17T14:53:08;4.70;;;1.90;;
1759;SDS011;877;46.266;20.062;2024-03-17T14:55:35;4.40;;;1.70;;
1759;SDS011;877;46.266;20.062;2024-03-17T14:58:01;4.67;;;1.70;;
1759;SDS011;877;46.266;20.062;2024-03-17T15:00:28;3.93;;;1.83;;
1759;SDS011;877;46.266;20.062;2024-03-17T15:02:56;7.10;;;3.20;;
1759;SDS011;877;46.266;20.062;2024-03-17T15:05:23;4.80;;;2.27;;
1759;SDS011;877;46.266;20.062;2024-03-17T15:07:51;4.07;;;1.60;;
1759;SDS011;877;46.266;20.062;2024-03-17T15:10:18;3.63;;;1.83;;
1759;SDS011;877;46.266;20.062;2024-03-17T15:12:48;3.87;;;1.60;;
1759;SDS011;877;46.266;20.062;2024-03-17T15:15:14;5.60;;;1.80;;
1759;SDS011;877;46.266;20.062;2024-03-17T15:17:41;5.37;;;1.40;;
1759;SDS011;877;46.266;20.062;2024-03-17T15:20:10;3.70;;;1.40;;
1759;SDS011;877;46.266;20.062;2024-03-17T15:22:44;3.60;;;1.60;;
1759;SDS011;877;46.266;20.062;2024-03-17T15:25:11;8.07;;;2.17;;
1759;SDS011;877;46.266;20.062;2024-03-17T15:27:37;4.43;;;1.80;;
1759;SDS011;877;46.266;20.062;2024-03-17T15:30:03;3.80;;;1.43;;
1759;SDS011;877;46.266;20.062;2024-03-17T15:32:30;4.47;;;2.27;;
1759;SDS011;877;46.266;20.062;2024-03-17T15:34:56;5.73;;;2.20;;
1759;SDS011;877;46.266;20.062;2024-03-17T15:37:24;5.20;;;2.47;;
1759;SDS011;877;46.266;20.062;2024-03-17T15:39:50;6.20;;;2.00;;
1759;SDS011;877;46.266;20.062;2024-03-17T15:42:17;3.77;;;1.73;;
1759;SDS011;877;46.266;20.062;2024-03-17T15:44:45;8.13;;;2.27;;